Time;durP1;ratioP1;P1;durP2;ratioP2;P2;SDS_P1;SDS_P2;PMS_P1;PMS_P2;Temp;Humidity;BMP_temperature;BMP_pressure;BME280_temperature;BME280_humidity;BME280_pressure;Samples;Min_cycle;Max_cycle;Signal;HPM_P1;HPM_P2
2022/05/05 00:01:50;;;;;;;5.75;3.83;;;22.50;99.90;;;;;;5052132;28;20071;-68
2022/05/05 00:04:19;;;;;;;5.78;5.13;;;22.20;99.90;;;;;;5053592;28;20554;-70
2022/05/05 00:06:46;;;;;;;9.93;7.25;;;22.10;99.90;;;;;;5052431;28;20128;-69
2022/05/05 00:09:13;;;;;;;6.70;4.82;;;22.10;99.90;;;;;;5052211;28;20204;-69
2022/05/05 00:14:31;;;;;;;1.88;1.30;;;22.20;99.90;;;;;;5055458;28;20019;-63
2022/05/05 00:17:07;;;;;;;4.45;2.63;;;22.40;99.90;;;;;;5050896;28;20391;-69
2022/05/05 00:19:44;;;;;;;3.42;1.67;;;22.40;99.90;;;;;;5034825;28;20025;-64
2022/05/05 00:22:11;;;;;;;3.83;2.17;;;22.30;99.90;;;;;;5052293;28;20033;-70
2022/05/05 00:24:38;;;;;;;3.70;2.28;;;22.30;99.90;;;;;;5052792;28;20028;-64
2022/05/05 00:27:06;;;;;;;7.18;2.70;;;22.20;99.90;;;;;;5047189;28;20028;-67
2022/05/05 00:29:34;;;;;;;3.47;2.08;;;22.10;99.90;;;;;;5047819;28;20467;-67
2022/05/05 00:32:01;;;;;;;3.85;2.50;;;22.00;99.90;;;;;;5052634;28;20400;-65
2022/05/05 00:34:28;;;;;;;3.20;1.30;;;22.00;99.90;;;;;;5052276;28;20009;-67
2022/05/05 00:36:55;;;;;;;2.88;1.40;;;22.10;99.90;;;;;;5045826;28;20075;-68
2022/05/05 00:39:21;;;;;;;2.88;1.80;;;22.30;99.90;;;;;;5047863;28;20067;-70
2022/05/05 00:41:49;;;;;;;3.63;2.90;;;22.70;99.90;;;;;;5052393;28;20598;-65
2022/05/05 00:44:16;;;;;;;1.38;1.27;;;23.20;99.90;;;;;;5052141;28;20021;-65
2022/05/05 00:46:51;;;;;;;2.42;0.95;;;23.30;99.90;;;;;;5052330;28;20112;-71
2022/05/05 00:49:18;;;;;;;3.60;1.75;;;23.30;99.90;;;;;;5047680;28;20021;-68
2022/05/05 00:51:46;;;;;;;1.83;1.10;;;23.50;99.90;;;;;;5052496;28;20023;-65
2022/05/05 00:54:12;;;;;;;2.90;1.45;;;23.60;99.90;;;;;;5049660;28;20021;-65
2022/05/05 00:56:40;;;;;;;1.58;1.25;;;23.90;99.90;;;;;;5049625;28;20021;-69
2022/05/05 00:59:09;;;;;;;4.15;1.42;;;24.10;99.90;;;;;;5045876;28;20037;-67
2022/05/05 01:01:36;;;;;;;3.00;1.30;;;24.20;99.90;;;;;;5027505;28;20495;-70
2022/05/05 01:04:05;;;;;;;2.47;1.10;;;24.20;99.90;;;;;;5044904;28;20100;-67
2022/05/05 01:06:34;;;;;;;4.43;1.33;;;24.10;99.90;;;;;;5052840;28;20521;-65
2022/05/05 01:09:01;;;;;;;2.25;0.77;;;23.80;99.90;;;;;;5041530;28;20049;-65
2022/05/05 01:11:29;;;;;;;2.83;1.42;;;23.30;99.90;;;;;;5043037;28;20022;-65
2022/05/05 01:13:57;;;;;;;2.72;1.20;;;23.10;99.90;;;;;;5045232;28;20029;-69
2022/05/05 01:16:24;;;;;;;6.47;2.67;;;23.10;99.90;;;;;;5043787;28;20361;-69
2022/05/05 01:18:55;;;;;;;3.55;1.98;;;23.00;99.90;;;;;;5043681;28;20025;-69
2022/05/05 01:21:23;;;;;;;3.90;1.17;;;23.10;99.90;;;;;;5045809;28;20478;-69
2022/05/05 01:23:50;;;;;;;5.00;1.40;;;23.20;99.90;;;;;;5046655;28;20029;-69
2022/05/05 01:29:04;;;;;;;4.18;1.30;;;23.90;99.90;;;;;;5043943;28;20064;-71
2022/05/05 01:31:31;;;;;;;4.00;1.50;;;24.20;99.90;;;;;;5044056;28;20426;-69
2022/05/05 01:33:58;;;;;;;2.08;1.38;;;24.40;99.90;;;;;;5045851;28;20021;-65
2022/05/05 01:36:25;;;;;;;2.15;0.95;;;24.60;99.90;;;;;;5045375;28;20399;-69
2022/05/05 01:38:52;;;;;;;2.63;0.90;;;24.80;99.90;;;;;;5039471;28;20041;-68
2022/05/05 01:41:21;;;;;;;1.80;1.15;;;24.60;99.90;;;;;;5028289;28;20532;-67
2022/05/05 01:43:48;;;;;;;2.33;1.10;;;24.60;99.60;;;;;;5045813;28;20470;-65
2022/05/05 01:46:15;;;;;;;2.00;1.05;;;24.70;99.90;;;;;;5042622;28;20024;-67
2022/05/05 01:48:42;;;;;;;2.20;1.08;;;24.80;99.70;;;;;;5042765;28;20518;-65
2022/05/05 01:51:09;;;;;;;1.90;1.10;;;25.00;99.80;;;;;;5042925;28;20021;-70
2022/05/05 01:53:37;;;;;;;1.63;0.70;;;25.20;98.90;;;;;;5045847;28;20499;-68
2022/05/05 01:56:13;;;;;;;2.25;1.05;;;25.20;99.40;;;;;;5049086;28;20021;-67
2022/05/05 01:58:44;;;;;;;1.85;0.77;;;25.30;99.60;;;;;;5042215;28;20025;-70
2022/05/05 02:01:12;;;;;;;2.67;1.00;;;25.40;98.90;;;;;;5046421;28;20071;-70
2022/05/05 02:03:40;;;;;;;3.60;1.05;;;24.80;99.10;;;;;;5041794;28;20053;-65
2022/05/05 02:06:07;;;;;;;6.05;1.20;;;24.60;99.60;;;;;;5041961;28;20022;-70
2022/05/05 02:08:36;;;;;;;2.42;1.15;;;24.10;99.30;;;;;;5046243;28;20078;-64
2022/05/05 02:11:03;;;;;;;1.63;1.02;;;23.80;99.90;;;;;;5044106;28;20040;-64
2022/05/05 02:13:30;;;;;;;2.30;1.30;;;24.10;99.90;;;;;;5041498;28;20017;-65
2022/05/05 02:15:57;;;;;;;2.67;1.23;;;24.50;99.90;;;;;;5045818;28;20028;-65
2022/05/05 02:18:24;;;;;;;2.95;1.30;;;24.50;99.90;;;;;;5042082;28;20601;-65
2022/05/05 02:20:51;;;;;;;2.97;0.95;;;24.30;99.40;;;;;;5045682;28;20021;-69
2022/05/05 02:23:18;;;;;;;2.80;1.33;;;23.80;99.60;;;;;;5027239;28;20361;-65
2022/05/05 02:25:45;;;;;;;1.88;1.08;;;23.40;99.90;;;;;;5044830;28;20032;-69
2022/05/05 02:28:12;;;;;;;2.78;1.88;;;23.50;99.90;;;;;;5046000;28;20025;-68
2022/05/05 02:30:39;;;;;;;3.42;1.30;;;23.70;99.90;;;;;;5039551;28;20021;-65
2022/05/05 02:33:06;;;;;;;1.50;1.15;;;23.90;99.90;;;;;;5045797;28;20478;-70
2022/05/05 02:35:33;;;;;;;5.47;1.00;;;24.00;99.90;;;;;;5047921;28;20032;-69
2022/05/05 02:40:45;;;;;;;2.33;1.00;;;24.70;98.80;;;;;;5047481;28;20032;-64
2022/05/05 02:43:13;;;;;;;3.33;0.90;;;24.90;97.70;;;;;;5049489;28;20028;-65
2022/05/05 02:45:40;;;;;;;3.08;1.27;;;24.60;97.30;;;;;;5045744;28;20029;-67
2022/05/05 02:48:07;;;;;;;1.98;1.08;;;24.20;97.90;;;;;;5044644;28;20036;-67
2022/05/05 02:50:34;;;;;;;2.03;0.85;;;24.40;97.60;;;;;;5046361;28;20031;-65
2022/05/05 02:54:46;;;;;;;1.38;1.00;;;24.60;97.00;;;;;;5052637;28;20086;-66
2022/05/05 02:55:48;;;;;;;1.92;1.00;;;24.80;96.70;;;;;;5046078;28;20072;-66
2022/05/05 02:58:15;;;;;;;3.28;1.55;;;25.00;96.00;;;;;;5045003;28;20029;-66
2022/05/05 03:00:42;;;;;;;2.00;1.52;;;25.20;96.50;;;;;;5043779;28;20384;-65
2022/05/05 03:03:09;;;;;;;1.63;1.00;;;25.20;95.80;;;;;;5050945;28;20024;-66
2022/05/05 03:05:35;;;;;;;1.75;1.33;;;25.30;95.90;;;;;;5043561;28;20116;-69
2022/05/05 03:08:02;;;;;;;1.60;0.90;;;25.30;96.20;;;;;;5046277;28;20539;-69
2022/05/05 03:10:29;;;;;;;2.05;1.10;;;25.50;96.00;;;;;;5045746;28;20025;-69
2022/05/05 03:12:56;;;;;;;3.92;1.00;;;25.40;95.90;;;;;;5046946;28;20388;-68
2022/05/05 03:15:23;;;;;;;2.08;1.00;;;25.20;96.50;;;;;;5042392;28;20021;-66
2022/05/05 03:17:50;;;;;;;2.78;0.90;;;25.20;96.10;;;;;;5051201;28;20037;-67
2022/05/05 03:20:17;;;;;;;4.35;1.25;;;25.40;95.60;;;;;;5046737;28;20036;-66
2022/05/05 03:22:44;;;;;;;3.17;1.30;;;25.40;96.40;;;;;;5047031;28;20085;-65
2022/05/05 03:25:11;;;;;;;2.28;1.00;;;25.60;96.30;;;;;;5042928;28;20032;-68
2022/05/05 03:27:39;;;;;;;0.98;0.73;;;25.80;96.00;;;;;;5051077;28;20443;-68
2022/05/05 03:30:06;;;;;;;1.80;1.00;;;26.00;95.40;;;;;;5046016;28;20021;-66
2022/05/05 03:32:33;;;;;;;2.65;0.93;;;26.20;95.80;;;;;;5044898;28;20155;-68
2022/05/05 03:35:00;;;;;;;2.53;1.00;;;26.20;95.70;;;;;;5046175;28;20170;-68
2022/05/05 03:37:31;;;;;;;3.85;0.95;;;26.20;95.70;;;;;;5045205;28;20573;-65
2022/05/05 03:39:58;;;;;;;1.95;1.02;;;26.20;94.90;;;;;;5043259;28;20018;-64
2022/05/05 03:42:25;;;;;;;2.08;1.10;;;25.90;94.30;;;;;;5043451;28;20090;-65
2022/05/05 03:44:52;;;;;;;3.90;1.17;;;26.00;95.60;;;;;;4692737;28;9999618;-66
2022/05/05 03:47:19;;;;;;;1.38;1.10;;;26.20;94.80;;;;;;5043087;28;20030;-65
2022/05/05 03:49:46;;;;;;;2.38;0.75;;;26.20;94.50;;;;;;5040572;28;20025;-68
2022/05/05 03:52:13;;;;;;;1.20;0.85;;;25.90;94.70;;;;;;5042520;28;20086;-68
2022/05/05 03:54:41;;;;;;;1.30;0.85;;;25.40;95.90;;;;;;5042647;28;20108;-68
2022/05/05 03:57:08;;;;;;;1.23;0.80;;;25.00;96.60;;;;;;5042821;28;20090;-65
2022/05/05 03:59:35;;;;;;;1.20;0.80;;;24.80;96.90;;;;;;5046982;28;20091;-65
2022/05/05 04:02:02;;;;;;;2.92;1.00;;;24.70;96.30;;;;;;5043787;28;20035;-65
2022/05/05 04:04:29;;;;;;;2.10;1.00;;;24.40;97.90;;;;;;5042760;28;20031;-66
2022/05/05 04:06:56;;;;;;;2.50;0.80;;;24.30;96.40;;;;;;5042358;28;20025;-64
2022/05/05 04:09:23;;;;;;;2.08;1.08;;;24.20;95.80;;;;;;5042855;28;20022;-67
2022/05/05 04:11:50;;;;;;;2.20;0.90;;;24.00;97.20;;;;;;5041902;28;20395;-68
2022/05/05 04:14:17;;;;;;;2.95;0.90;;;23.90;97.00;;;;;;5040588;28;20017;-68
2022/05/05 04:16:44;;;;;;;2.33;1.10;;;23.90;96.50;;;;;;5043034;28;20073;-66
2022/05/05 04:19:11;;;;;;;2.15;0.90;;;23.90;97.90;;;;;;5042671;28;20035;-68
2022/05/05 04:21:38;;;;;;;2.50;1.17;;;23.80;98.70;;;;;;5045134;28;20025;-67
2022/05/05 04:24:06;;;;;;;1.30;0.82;;;23.70;96.50;;;;;;5041618;28;20704;-66
2022/05/05 04:26:33;;;;;;;3.15;1.02;;;23.60;98.60;;;;;;5043601;28;20102;-67
2022/05/05 04:29:00;;;;;;;3.83;1.30;;;23.50;98.00;;;;;;5023037;28;20025;-68
2022/05/05 04:31:32;;;;;;;1.27;1.08;;;23.50;98.10;;;;;;5040511;28;20100;-67
2022/05/05 04:33:59;;;;;;;1.77;1.30;;;23.60;99.30;;;;;;5043620;28;20039;-67
2022/05/05 04:36:26;;;;;;;1.45;1.08;;;23.70;98.80;;;;;;5043552;28;20104;-65
2022/05/05 04:38:53;;;;;;;1.77;0.98;;;24.30;96.30;;;;;;5041160;28;20049;-68
2022/05/05 04:41:21;;;;;;;2.65;1.15;;;24.80;96.30;;;;;;5046016;28;20021;-68
2022/05/05 04:43:48;;;;;;;1.60;1.00;;;25.30;95.90;;;;;;5041426;28;20021;-68
2022/05/05 04:46:14;;;;;;;2.65;1.05;;;25.40;94.40;;;;;;5040852;28;20017;-68
2022/05/05 04:48:41;;;;;;;3.13;1.20;;;25.20;94.70;;;;;;5042531;28;20108;-66
2022/05/05 04:51:08;;;;;;;2.15;1.13;;;24.80;94.60;;;;;;5045818;28;20012;-65
2022/05/05 04:53:35;;;;;;;2.58;0.85;;;24.40;96.00;;;;;;5042815;28;20022;-64
2022/05/05 04:56:02;;;;;;;2.70;1.15;;;24.20;97.00;;;;;;5037664;28;20436;-67
2022/05/05 04:58:32;;;;;;;4.25;1.45;;;24.10;98.30;;;;;;5042756;28;20128;-67
2022/05/05 05:00:59;;;;;;;2.35;1.10;;;24.00;97.70;;;;;;5024144;28;20098;-66
2022/05/05 05:03:39;;;;;;;3.22;1.02;;;24.00;97.30;;;;;;5043885;28;20074;-67
2022/05/05 05:06:09;;;;;;;3.10;1.10;;;24.00;96.70;;;;;;5037619;28;20028;-69
2022/05/05 05:08:36;;;;;;;2.47;0.98;;;23.90;97.00;;;;;;5044962;28;20034;-68
2022/05/05 05:11:03;;;;;;;2.22;0.95;;;24.00;96.50;;;;;;5048504;28;20462;-69
2022/05/05 05:13:30;;;;;;;2.03;0.88;;;24.10;97.00;;;;;;5042640;28;20587;-65
2022/05/05 05:15:57;;;;;;;3.67;0.98;;;24.30;97.60;;;;;;5040023;28;20017;-68
2022/05/05 05:18:24;;;;;;;2.75;1.20;;;24.30;97.90;;;;;;5047432;28;20040;-66
2022/05/05 05:20:52;;;;;;;1.98;1.10;;;24.20;98.40;;;;;;5042541;28;20044;-69
2022/05/05 05:23:19;;;;;;;1.70;0.90;;;24.00;96.80;;;;;;5040805;28;20104;-64
2022/05/05 05:25:46;;;;;;;2.95;1.20;;;24.00;96.40;;;;;;5043069;28;20035;-64
2022/05/05 05:28:16;;;;;;;2.38;1.05;;;23.80;96.60;;;;;;5045097;28;20036;-67
2022/05/05 05:30:43;;;;;;;2.13;1.20;;;23.60;97.50;;;;;;5037948;28;20472;-67
2022/05/05 05:33:10;;;;;;;2.08;1.38;;;23.40;99.20;;;;;;5040351;28;20021;-69
2022/05/05 05:35:38;;;;;;;2.20;1.00;;;23.50;98.80;;;;;;5043576;28;20134;-68
2022/05/05 05:38:06;;;;;;;2.55;1.10;;;24.20;98.40;;;;;;5039016;28;20048;-66
2022/05/05 05:40:33;;;;;;;2.63;1.35;;;24.40;97.20;;;;;;5040206;28;20021;-67
2022/05/05 05:43:00;;;;;;;9.38;2.15;;;24.10;97.60;;;;;;5039588;28;20028;-67
2022/05/05 05:45:27;;;;;;;1.90;1.20;;;23.70;98.80;;;;;;5038078;28;20074;-67
2022/05/05 05:47:54;;;;;;;4.50;1.40;;;23.30;98.80;;;;;;5038678;28;20079;-65
2022/05/05 05:50:21;;;;;;;1.58;1.02;;;23.10;99.50;;;;;;5039123;28;20098;-65
2022/05/05 05:52:48;;;;;;;1.88;1.20;;;23.20;99.90;;;;;;5042277;28;20106;-68
2022/05/05 05:55:16;;;;;;;2.28;1.20;;;23.90;98.90;;;;;;5035706;28;20562;-67
2022/05/05 05:57:43;;;;;;;6.07;1.95;;;24.60;97.90;;;;;;5034819;28;20029;-69
2022/05/05 06:00:10;;;;;;;5.57;1.70;;;25.00;97.60;;;;;;5032584;28;20032;-69
2022/05/05 06:05:22;;;;;;;3.50;1.80;;;25.20;96.70;;;;;;5044049;28;20559;-70
2022/05/05 06:07:49;;;;;;;2.75;1.55;;;25.50;96.40;;;;;;5043058;28;20087;-69
2022/05/05 06:10:20;;;;;;;1.85;1.27;;;25.80;96.10;;;;;;5041209;28;20092;-66
2022/05/05 06:12:47;;;;;;;2.95;1.55;;;26.00;96.30;;;;;;5039979;28;20032;-68
2022/05/05 06:15:14;;;;;;;2.05;1.38;;;26.30;95.70;;;;;;5023982;28;20442;-68
2022/05/05 06:17:41;;;;;;;3.40;1.60;;;26.40;95.40;;;;;;5046431;28;20124;-69
2022/05/05 06:20:09;;;;;;;4.88;1.45;;;26.30;96.10;;;;;;5040402;28;20020;-68
2022/05/05 06:22:37;;;;;;;3.20;1.73;;;26.10;96.60;;;;;;5045542;28;20100;-67
2022/05/05 06:25:05;;;;;;;6.85;2.22;;;26.00;97.00;;;;;;5039886;28;20163;-68
2022/05/05 06:27:32;;;;;;;6.00;2.67;;;25.80;97.50;;;;;;5044135;28;20025;-68
2022/05/05 06:30:02;;;;;;;5.07;2.08;;;25.80;97.30;;;;;;5024959;28;20017;-70
2022/05/05 06:32:28;;;;;;;6.97;1.75;;;25.80;97.10;;;;;;5045055;28;20564;-68
2022/05/05 06:34:55;;;;;;;3.70;1.80;;;25.70;97.00;;;;;;5023137;28;20025;-65
2022/05/05 06:37:25;;;;;;;4.22;1.90;;;25.50;97.20;;;;;;5040853;28;20063;-68
2022/05/05 06:39:53;;;;;;;2.33;1.50;;;25.30;97.40;;;;;;5044217;28;20102;-67
2022/05/05 06:42:20;;;;;;;5.22;2.13;;;25.20;97.50;;;;;;5041905;28;20515;-67
2022/05/05 06:44:47;;;;;;;3.92;1.67;;;24.90;98.40;;;;;;5041606;28;20487;-68
2022/05/05 06:47:14;;;;;;;4.35;2.00;;;24.70;98.90;;;;;;5044402;28;20095;-68
2022/05/05 06:49:41;;;;;;;2.63;1.90;;;24.20;99.60;;;;;;5048479;28;20021;-66
2022/05/05 06:52:08;;;;;;;4.70;1.83;;;24.00;99.90;;;;;;5041870;28;20021;-67
2022/05/05 06:54:35;;;;;;;4.32;1.88;;;23.70;99.90;;;;;;5045192;28;20032;-68
2022/05/05 06:57:03;;;;;;;3.75;1.55;;;23.60;99.90;;;;;;5046509;28;20025;-65
2022/05/05 06:59:30;;;;;;;4.05;1.58;;;23.40;99.90;;;;;;5037938;28;20060;-65
2022/05/05 07:02:03;;;;;;;4.10;1.88;;;23.00;99.90;;;;;;5047378;28;20017;-68
2022/05/05 07:07:17;;;;;;;3.08;1.65;;;22.00;99.90;;;;;;5043956;28;20040;-68
2022/05/05 07:12:33;;;;;;;6.53;3.30;;;21.30;99.90;;;;;;5047299;28;20083;-65
2022/05/05 07:15:00;;;;;;;5.70;3.47;;;20.90;99.90;;;;;;5042988;28;20493;-66
2022/05/05 07:17:28;;;;;;;9.40;6.25;;;20.50;99.90;;;;;;5044078;28;20128;-68
2022/05/05 07:19:55;;;;;;;3.13;2.05;;;20.20;99.90;;;;;;5021811;28;20083;-64
2022/05/05 07:22:22;;;;;;;3.75;2.03;;;19.90;99.90;;;;;;5043712;28;20017;-67
2022/05/05 07:24:49;;;;;;;4.45;2.22;;;19.80;99.90;;;;;;5039595;28;20113;-68
2022/05/05 07:27:16;;;;;;;2.65;1.55;;;19.60;99.90;;;;;;5042956;28;20142;-68
2022/05/05 07:29:43;;;;;;;3.35;1.90;;;19.50;99.90;;;;;;5039246;28;20017;-67
2022/05/05 07:32:11;;;;;;;4.43;1.75;;;19.50;99.90;;;;;;5046593;28;20383;-65
2022/05/05 07:34:39;;;;;;;8.82;3.75;;;19.50;99.90;;;;;;5040140;28;20018;-65
2022/05/05 07:37:07;;;;;;;7.70;3.13;;;19.40;99.90;;;;;;5045667;28;20033;-68
2022/05/05 07:39:34;;;;;;;7.13;3.10;;;19.30;99.90;;;;;;5023427;28;20025;-64
2022/05/05 07:42:00;;;;;;;5.03;2.03;;;19.20;99.90;;;;;;5044166;28;20537;-67
2022/05/05 07:44:27;;;;;;;6.32;2.40;;;19.10;99.90;;;;;;5040046;28;20036;-65
2022/05/05 07:46:55;;;;;;;6.40;2.13;;;19.00;99.90;;;;;;5047904;28;20040;-66
2022/05/05 07:49:22;;;;;;;3.40;2.13;;;18.80;99.90;;;;;;5054468;28;20032;-66
2022/05/05 07:51:52;;;;;;;3.60;2.25;;;18.80;99.90;;;;;;5049227;28;20427;-66
2022/05/05 07:54:34;;;;;;;5.38;2.30;;;18.70;99.90;;;;;;5046562;28;20027;-69
2022/05/05 07:57:02;;;;;;;3.45;2.00;;;18.70;99.90;;;;;;5050044;28;20040;-64
2022/05/05 07:59:30;;;;;;;4.85;2.10;;;18.60;99.90;;;;;;5048817;28;20562;-64
2022/05/05 08:01:57;;;;;;;5.82;1.98;;;18.50;99.90;;;;;;5047538;28;20021;-67
2022/05/05 08:04:24;;;;;;;4.65;2.10;;;18.60;99.90;;;;;;5047193;28;20055;-64
2022/05/05 08:06:52;;;;;;;6.15;2.35;;;18.60;99.90;;;;;;5045006;28;20032;-65
2022/05/05 08:09:19;;;;;;;4.95;1.85;;;18.70;99.90;;;;;;5047869;28;20016;-65
2022/05/05 08:11:46;;;;;;;5.85;2.33;;;18.50;99.90;;;;;;5048789;28;20107;-65
2022/05/05 08:14:13;;;;;;;3.97;2.30;;;18.40;99.90;;;;;;5046572;28;20047;-69
2022/05/05 08:16:40;;;;;;;4.40;2.40;;;18.30;99.90;;;;;;5028195;28;20029;-67
2022/05/05 08:19:07;;;;;;;5.35;3.13;;;18.30;99.90;;;;;;5043391;28;20499;-69
2022/05/05 08:21:35;;;;;;;6.18;2.63;;;18.20;99.90;;;;;;5043488;28;20025;-69
2022/05/05 08:29:32;;;;;;;6.35;3.58;;;18.00;99.90;;;;;;5041533;28;20044;-64
2022/05/05 08:32:00;;;;;;;7.75;3.65;;;18.00;99.90;;;;;;5041682;28;20025;-65
2022/05/05 08:34:26;;;;;;;11.82;6.63;;;18.00;99.90;;;;;;5041805;28;20025;-72
2022/05/05 08:36:53;;;;;;;7.80;3.45;;;18.00;99.90;;;;;;5045228;28;20055;-72
2022/05/05 08:39:20;;;;;;;6.90;2.65;;;18.00;99.90;;;;;;5042743;28;20073;-69
2022/05/05 08:41:48;;;;;;;6.20;3.80;;;18.00;99.90;;;;;;5044311;28;20033;-68
2022/05/05 08:44:15;;;;;;;17.17;11.38;;;17.90;99.90;;;;;;5041992;28;20114;-66
2022/05/05 08:46:42;;;;;;;10.48;6.07;;;17.70;99.90;;;;;;5038214;28;20135;-69
2022/05/05 08:49:10;;;;;;;22.08;14.95;;;17.80;99.90;;;;;;5041396;28;20024;-72
2022/05/05 08:51:46;;;;;;;9.15;4.40;;;17.70;99.90;;;;;;5041944;28;20048;-64
2022/05/05 08:54:18;;;;;;;3.17;2.15;;;17.70;99.90;;;;;;5042572;28;20065;-65
2022/05/05 08:56:50;;;;;;;3.25;2.03;;;17.60;99.90;;;;;;5042685;28;20118;-66
2022/05/05 08:59:22;;;;;;;4.93;2.00;;;17.50;99.90;;;;;;5043284;28;20498;-70
2022/05/05 09:01:52;;;;;;;2.43;1.63;;;17.40;99.90;;;;;;5043579;28;20322;-69
2022/05/05 09:04:20;;;;;;;5.25;2.47;;;17.20;99.90;;;;;;5025277;28;20079;-74
2022/05/05 09:06:52;;;;;;;3.78;2.10;;;17.10;99.90;;;;;;5042719;28;20052;-67
2022/05/05 09:09:34;;;;;;;2.88;2.10;;;17.00;99.90;;;;;;5042426;28;20021;-70
2022/05/05 09:12:22;;;;;;;5.55;1.85;;;17.00;99.90;;;;;;5043113;28;20025;-68
2022/05/05 09:14:53;;;;;;;4.70;2.05;;;17.00;99.90;;;;;;5043019;28;20027;-67
2022/05/05 09:17:26;;;;;;;5.72;2.15;;;16.90;99.90;;;;;;5041335;28;20044;-69
2022/05/05 09:19:57;;;;;;;6.28;2.50;;;16.90;99.90;;;;;;5043372;28;20506;-67
2022/05/05 09:22:27;;;;;;;6.82;2.55;;;16.90;99.90;;;;;;5042460;28;20035;-65
2022/05/05 09:24:58;;;;;;;7.07;3.17;;;16.90;99.90;;;;;;5040074;28;20086;-68
2022/05/05 09:27:28;;;;;;;6.60;2.88;;;16.80;99.90;;;;;;5043016;28;20017;-72
2022/05/05 09:30:14;;;;;;;6.35;3.95;;;16.80;99.90;;;;;;5044042;28;20041;-68
2022/05/05 09:32:42;;;;;;;5.65;3.05;;;16.80;99.90;;;;;;5042351;28;20048;-66
2022/05/05 09:35:15;;;;;;;6.47;3.80;;;16.80;99.90;;;;;;5037495;28;20558;-73
2022/05/05 09:37:47;;;;;;;9.02;3.30;;;17.00;99.90;;;;;;5019903;28;20346;-71
2022/05/05 09:40:24;;;;;;;6.30;3.22;;;17.30;99.90;;;;;;5022855;28;20391;-69
2022/05/05 09:42:53;;;;;;;5.35;2.90;;;17.30;99.90;;;;;;5025572;28;20090;-66
2022/05/05 09:45:20;;;;;;;6.55;2.35;;;17.20;99.90;;;;;;5026681;28;20169;-70
2022/05/05 09:47:55;;;;;;;6.10;2.58;;;17.20;99.90;;;;;;5013233;28;20030;-68
2022/05/05 09:50:25;;;;;;;6.38;3.00;;;17.10;99.90;;;;;;5018091;28;20030;-71
2022/05/05 09:58:34;;;;;;;11.15;4.03;;;16.90;99.90;;;;;;5018705;28;20037;-68
2022/05/05 10:01:13;;;;;;;13.55;3.70;;;16.90;99.90;;;;;;5014507;28;20037;-68
2022/05/05 10:04:05;;;;;;;13.75;3.78;;;17.00;99.90;;;;;;5020052;28;20104;-67
2022/05/05 10:06:35;;;;;;;18.13;4.93;;;17.10;99.90;;;;;;5015547;28;20026;-66
2022/05/05 10:09:07;;;;;;;15.07;4.93;;;17.20;99.90;;;;;;5013875;28;20078;-69
2022/05/05 10:11:35;;;;;;;12.65;4.63;;;17.30;99.90;;;;;;5015377;28;20024;-68
2022/05/05 10:14:04;;;;;;;16.42;3.60;;;17.30;99.90;;;;;;5018191;28;20408;-70
2022/05/05 10:16:31;;;;;;;9.65;3.50;;;17.20;99.90;;;;;;5014770;28;20076;-68
2022/05/05 10:18:59;;;;;;;11.65;3.50;;;17.10;99.90;;;;;;5014631;28;20109;-67
2022/05/05 10:21:51;;;;;;;9.52;2.80;;;17.10;99.90;;;;;;5015620;28;20045;-65
2022/05/05 10:24:24;;;;;;;7.90;2.97;;;17.10;99.90;;;;;;5017962;28;20101;-71
2022/05/05 10:26:53;;;;;;;7.85;3.05;;;17.10;99.90;;;;;;5016022;28;20492;-66
2022/05/05 10:29:42;;;;;;;7.93;2.88;;;17.20;99.90;;;;;;5013034;28;20087;-69
2022/05/05 10:32:12;;;;;;;8.90;3.13;;;17.10;99.90;;;;;;5014432;28;20029;-69
2022/05/05 10:34:45;;;;;;;9.85;3.25;;;17.10;99.90;;;;;;5021489;28;20108;-65
2022/05/05 10:37:15;;;;;;;8.20;3.20;;;17.10;99.90;;;;;;4951542;22;2470256;-68
2022/05/05 10:40:07;;;;;;;9.20;3.83;;;17.10;99.90;;;;;;5048889;28;20040;-71
2022/05/05 10:42:41;;;;;;;7.47;2.88;;;17.10;99.90;;;;;;5055648;28;20036;-67
2022/05/05 10:45:17;;;;;;;13.90;3.47;;;17.10;99.90;;;;;;5048055;28;20108;-66
2022/05/05 10:47:58;;;;;;;12.82;3.30;;;17.10;99.90;;;;;;5060784;28;20120;-68
2022/05/05 10:50:50;;;;;;;10.48;3.45;;;17.20;99.90;;;;;;5052113;28;20024;-70
2022/05/05 10:53:40;;;;;;;9.27;3.53;;;17.20;99.90;;;;;;5055633;28;20024;-66
2022/05/05 10:56:26;;;;;;;17.70;4.43;;;17.30;99.90;;;;;;5051135;28;20344;-68
2022/05/05 10:59:03;;;;;;;11.38;3.65;;;17.30;99.90;;;;;;5056491;28;20028;-63
2022/05/05 11:01:46;;;;;;;13.88;3.95;;;17.50;99.90;;;;;;5047080;28;20092;-64
2022/05/05 11:04:17;;;;;;;11.07;3.85;;;17.50;99.90;;;;;;5056339;28;20028;-64
2022/05/05 11:06:45;;;;;;;11.02;3.35;;;17.40;99.90;;;;;;5053247;28;20021;-69
2022/05/05 11:09:34;;;;;;;10.40;3.22;;;17.30;99.90;;;;;;5049421;28;20071;-71
2022/05/05 11:12:24;;;;;;;9.50;3.53;;;17.30;99.90;;;;;;5058213;28;20078;-67
2022/05/05 11:23:45;;;;;;;5.93;2.63;;;17.00;99.90;;;;;;5050738;28;20035;-71
2022/05/05 11:26:18;;;;;;;6.85;2.70;;;17.00;99.90;;;;;;5046165;28;20032;-71
2022/05/05 11:28:47;;;;;;;5.72;3.00;;;16.80;99.90;;;;;;5057891;28;20391;-67
2022/05/05 11:31:21;;;;;;;6.18;2.58;;;16.70;99.90;;;;;;5050672;28;20784;-73
2022/05/05 11:34:00;;;;;;;6.75;3.22;;;16.60;99.90;;;;;;5036182;28;20483;-69
2022/05/05 11:36:35;;;;;;;5.25;2.72;;;16.50;99.90;;;;;;5045981;28;20017;-65
2022/05/05 11:39:03;;;;;;;6.30;2.75;;;16.50;99.90;;;;;;5047558;28;20048;-65
2022/05/05 11:41:31;;;;;;;4.55;2.70;;;16.40;99.90;;;;;;5058003;28;20131;-65
2022/05/05 11:44:20;;;;;;;8.43;2.85;;;16.50;99.90;;;;;;5056436;28;20103;-68
2022/05/05 11:46:47;;;;;;;6.40;2.45;;;16.50;99.90;;;;;;5051791;28;20028;-66
2022/05/05 11:49:14;;;;;;;4.43;2.88;;;16.50;99.90;;;;;;5060104;28;20039;-64
2022/05/05 11:51:41;;;;;;;10.35;3.40;;;16.40;99.90;;;;;;5050021;28;20021;-68
2022/05/05 11:54:29;;;;;;;8.00;3.20;;;16.40;99.90;;;;;;5057128;28;20009;-66
2022/05/05 11:56:56;;;;;;;6.88;2.63;;;16.50;99.90;;;;;;5058244;28;20036;-66
2022/05/05 12:02:20;;;;;;;7.90;3.00;;;16.40;99.90;;;;;;5053311;28;20104;-69
2022/05/05 12:04:59;;;;;;;5.25;3.00;;;16.30;99.90;;;;;;5053593;28;20025;-67
2022/05/05 12:07:27;;;;;;;7.43;3.55;;;16.30;99.90;;;;;;5055324;28;20017;-69
2022/05/05 12:09:58;;;;;;;6.72;3.38;;;16.30;99.90;;;;;;5051383;28;20016;-70
2022/05/05 12:12:27;;;;;;;7.03;3.90;;;16.30;99.90;;;;;;5049745;28;20025;-69
2022/05/05 12:15:02;;;;;;;5.38;2.90;;;16.40;99.90;;;;;;5053757;28;20104;-69
2022/05/05 12:17:42;;;;;;;4.82;3.10;;;16.50;99.90;;;;;;5053134;28;20089;-68
2022/05/05 12:20:11;;;;;;;6.07;3.45;;;16.60;99.90;;;;;;5051556;28;20447;-69
2022/05/05 12:22:43;;;;;;;11.23;4.15;;;16.60;99.90;;;;;;5056677;28;20877;-66
2022/05/05 12:25:16;;;;;;;9.85;4.53;;;16.70;99.90;;;;;;5058329;28;20446;-66
2022/05/05 12:28:00;;;;;;;;;;;16.80;99.90;;;;;;5053266;28;20542;-66
2022/05/05 12:30:41;;;;;;;7.25;3.70;;;16.80;99.90;;;;;;5059056;28;19908;-69
2022/05/05 12:33:19;;;;;;;5.20;3.25;;;16.70;99.90;;;;;;5048187;28;20123;-70
2022/05/05 12:35:47;;;;;;;5.50;2.88;;;16.70;99.90;;;;;;5061519;28;20013;-67
2022/05/05 12:38:16;;;;;;;5.95;2.33;;;16.60;99.90;;;;;;5060793;28;20041;-72
2022/05/05 12:40:46;;;;;;;7.28;2.25;;;16.60;99.90;;;;;;5058164;28;20085;-68
2022/05/05 12:43:13;;;;;;;4.00;2.55;;;16.50;99.90;;;;;;5054976;28;20589;-67
2022/05/05 12:45:41;;;;;;;3.65;2.20;;;16.40;99.90;;;;;;5056732;28;20085;-65
2022/05/05 12:48:12;;;;;;;6.95;2.88;;;16.40;99.90;;;;;;5068747;28;20028;-70
2022/05/05 12:50:46;;;;;;;4.50;1.90;;;16.30;99.90;;;;;;5062342;28;20063;-66
2022/05/05 13:01:46;;;;;;;4.53;1.80;;;16.40;99.90;;;;;;5055755;28;20558;-67
2022/05/05 13:04:15;;;;;;;5.35;1.88;;;16.50;99.90;;;;;;5061585;28;20017;-65
2022/05/05 13:06:46;;;;;;;4.25;1.80;;;16.50;99.90;;;;;;5058553;28;20497;-67
2022/05/05 13:09:14;;;;;;;2.88;1.80;;;16.50;99.90;;;;;;5053050;28;20017;-63
2022/05/05 13:11:47;;;;;;;3.40;1.40;;;16.60;99.90;;;;;;5053932;28;20066;-65
2022/05/05 13:14:15;;;;;;;2.28;1.23;;;16.60;99.90;;;;;;5056800;28;20028;-65
2022/05/05 13:16:42;;;;;;;2.45;1.00;;;16.60;99.90;;;;;;5052649;28;20033;-66
2022/05/05 13:19:09;;;;;;;3.50;1.50;;;16.60;99.90;;;;;;5052078;28;20543;-66
2022/05/05 13:21:38;;;;;;;2.33;1.20;;;16.60;99.90;;;;;;5062234;28;20019;-67
2022/05/05 13:24:07;;;;;;;4.70;1.40;;;16.50;99.90;;;;;;5051951;28;20451;-66
2022/05/05 13:26:34;;;;;;;2.33;1.25;;;16.50;99.90;;;;;;5044111;28;20024;-63
2022/05/05 13:29:01;;;;;;;3.33;1.23;;;16.50;99.90;;;;;;5059437;28;20036;-65
2022/05/05 13:31:28;;;;;;;3.92;1.30;;;16.50;99.90;;;;;;5053796;28;20024;-69
2022/05/05 13:33:56;;;;;;;3.13;1.20;;;16.50;99.90;;;;;;5051714;28;20017;-63
2022/05/05 13:36:23;;;;;;;2.88;1.20;;;16.50;99.90;;;;;;5051515;28;20242;-69
2022/05/05 13:38:50;;;;;;;3.05;1.38;;;16.50;99.90;;;;;;5057631;28;20131;-63
2022/05/05 13:41:17;;;;;;;3.13;1.45;;;16.40;99.90;;;;;;5053349;28;20444;-66
2022/05/05 13:43:44;;;;;;;2.60;1.10;;;16.40;99.90;;;;;;5061233;28;20414;-65
2022/05/05 13:46:11;;;;;;;5.28;1.23;;;16.30;99.90;;;;;;5069326;28;20023;-65